sensor_id;sensor_type;location;lat;lon;timestamp;temperature;humidity
9057;DHT22;4563;54.756;9.400;2023-02-17T00:00:11;9.80;85.10
9057;DHT22;4563;54.756;9.400;2023-02-17T00:02:38;9.80;85.20
9057;DHT22;4563;54.756;9.400;2023-02-17T00:05:05;9.80;85.20
9057;DHT22;4563;54.756;9.400;2023-02-17T00:07:32;9.80;85.10
9057;DHT22;4563;54.756;9.400;2023-02-17T00:10:00;9.80;85.10
9057;DHT22;4563;54.756;9.400;2023-02-17T00:12:28;9.80;85.10
9057;DHT22;4563;54.756;9.400;2023-02-17T00:14:54;9.80;85.10
9057;DHT22;4563;54.756;9.400;2023-02-17T00:17:21;9.80;85.10
9057;DHT22;4563;54.756;9.400;2023-02-17T00:19:48;9.80;85.10
9057;DHT22;4563;54.756;9.400;2023-02-17T00:22:15;9.80;85.10
9057;DHT22;4563;54.756;9.400;2023-02-17T00:24:41;9.80;85.10
9057;DHT22;4563;54.756;9.400;2023-02-17T00:27:09;9.80;85.10
9057;DHT22;4563;54.756;9.400;2023-02-17T00:29:37;9.80;85.10
9057;DHT22;4563;54.756;9.400;2023-02-17T00:32:04;9.80;85.10
9057;DHT22;4563;54.756;9.400;2023-02-17T00:34:31;9.90;85.20
9057;DHT22;4563;54.756;9.400;2023-02-17T00:36:58;9.80;85.10
9057;DHT22;4563;54.756;9.400;2023-02-17T00:39:25;9.90;85.10
9057;DHT22;4563;54.756;9.400;2023-02-17T00:41:52;9.90;85.20
9057;DHT22;4563;54.756;9.400;2023-02-17T00:44:23;9.80;85.10
9057;DHT22;4563;54.756;9.400;2023-02-17T00:46:51;9.90;85.20
9057;DHT22;4563;54.756;9.400;2023-02-17T00:49:20;9.90;85.30
9057;DHT22;4563;54.756;9.400;2023-02-17T00:51:47;9.90;85.90
9057;DHT22;4563;54.756;9.400;2023-02-17T00:54:14;9.90;85.30
9057;DHT22;4563;54.756;9.400;2023-02-17T00:56:41;9.90;85.20
9057;DHT22;4563;54.756;9.400;2023-02-17T00:59:09;9.90;85.20
9057;DHT22;4563;54.756;9.400;2023-02-17T01:01:37;9.90;85.20
9057;DHT22;4563;54.756;9.400;2023-02-17T01:04:05;9.90;85.30
9057;DHT22;4563;54.756;9.400;2023-02-17T01:06:33;9.90;85.20
9057;DHT22;4563;54.756;9.400;2023-02-17T01:09:01;9.90;85.20
9057;DHT22;4563;54.756;9.400;2023-02-17T01:11:30;9.90;85.30
9057;DHT22;4563;54.756;9.400;2023-02-17T01:13:57;9.90;85.30
9057;DHT22;4563;54.756;9.400;2023-02-17T01:16:26;9.90;85.30
9057;DHT22;4563;54.756;9.400;2023-02-17T01:18:53;9.90;85.40
9057;DHT22;4563;54.756;9.400;2023-02-17T01:21:23;9.90;85.30
9057;DHT22;4563;54.756;9.400;2023-02-17T01:23:52;10.00;84.30
9057;DHT22;4563;54.756;9.400;2023-02-17T01:26:22;10.00;84.20
9057;DHT22;4563;54.756;9.400;2023-02-17T01:28:50;9.90;85.20
9057;DHT22;4563;54.756;9.400;2023-02-17T01:31:18;9.90;85.30
9057;DHT22;4563;54.756;9.400;2023-02-17T01:33:45;9.90;85.30
9057;DHT22;4563;54.756;9.400;2023-02-17T01:36:14;10.00;84.20
9057;DHT22;4563;54.756;9.400;2023-02-17T01:38:43;10.00;84.20
9057;DHT22;4563;54.756;9.400;2023-02-17T01:41:11;9.90;85.30
9057;DHT22;4563;54.756;9.400;2023-02-17T01:43:39;10.00;84.20
9057;DHT22;4563;54.756;9.400;2023-02-17T01:46:08;9.90;85.30
9057;DHT22;4563;54.756;9.400;2023-02-17T01:48:37;10.00;84.30
9057;DHT22;4563;54.756;9.400;2023-02-17T01:51:08;10.00;84.40
9057;DHT22;4563;54.756;9.400;2023-02-17T01:53:40;10.00;84.30
9057;DHT22;4563;54.756;9.400;2023-02-17T01:56:09;10.00;84.30
9057;DHT22;4563;54.756;9.400;2023-02-17T01:58:38;10.00;84.30
9057;DHT22;4563;54.756;9.400;2023-02-17T02:01:06;10.00;84.20
9057;DHT22;4563;54.756;9.400;2023-02-17T02:03:35;10.00;84.20
9057;DHT22;4563;54.756;9.400;2023-02-17T02:06:05;10.00;84.20
9057;DHT22;4563;54.756;9.400;2023-02-17T02:08:38;10.00;84.30
9057;DHT22;4563;54.756;9.400;2023-02-17T02:11:06;10.00;84.20
9057;DHT22;4563;54.756;9.400;2023-02-17T02:13:34;10.00;84.10
9057;DHT22;4563;54.756;9.400;2023-02-17T02:16:08;10.00;84.20
9057;DHT22;4563;54.756;9.400;2023-02-17T02:18:43;10.00;85.00
9057;DHT22;4563;54.756;9.400;2023-02-17T02:24:27;10.00;83.80
9057;DHT22;4563;54.756;9.400;2023-02-17T02:33:07;10.00;84.00
9057;DHT22;4563;54.756;9.400;2023-02-17T02:35:46;10.00;84.20
9057;DHT22;4563;54.756;9.400;2023-02-17T02:38:19;10.00;84.20
9057;DHT22;4563;54.756;9.400;2023-02-17T02:40:52;10.00;84.30
9057;DHT22;4563;54.756;9.400;2023-02-17T02:43:20;10.00;84.20
9057;DHT22;4563;54.756;9.400;2023-02-17T02:45:47;10.00;84.40
9057;DHT22;4563;54.756;9.400;2023-02-17T02:48:15;10.00;84.40
9057;DHT22;4563;54.756;9.400;2023-02-17T02:50:57;10.10;84.50
9057;DHT22;4563;54.756;9.400;2023-02-17T02:53:44;10.10;84.30
9057;DHT22;4563;54.756;9.400;2023-02-17T02:56:20;10.10;84.50
9057;DHT22;4563;54.756;9.400;2023-02-17T02:58:51;10.00;84.30
9057;DHT22;4563;54.756;9.400;2023-02-17T03:01:28;10.10;84.50
9057;DHT22;4563;54.756;9.400;2023-02-17T03:04:05;10.10;84.40
9057;DHT22;4563;54.756;9.400;2023-02-17T03:06:38;10.10;84.30
9057;DHT22;4563;54.756;9.400;2023-02-17T03:09:09;10.00;84.30
9057;DHT22;4563;54.756;9.400;2023-02-17T03:11:38;10.10;84.50
9057;DHT22;4563;54.756;9.400;2023-02-17T03:14:07;10.10;84.50
9057;DHT22;4563;54.756;9.400;2023-02-17T03:16:36;10.10;84.50
9057;DHT22;4563;54.756;9.400;2023-02-17T03:19:05;10.10;84.50
9057;DHT22;4563;54.756;9.400;2023-02-17T03:21:35;10.10;84.50
9057;DHT22;4563;54.756;9.400;2023-02-17T03:24:03;10.10;84.50
9057;DHT22;4563;54.756;9.400;2023-02-17T03:26:30;10.10;84.60
9057;DHT22;4563;54.756;9.400;2023-02-17T03:28:57;10.10;84.30
9057;DHT22;4563;54.756;9.400;2023-02-17T03:31:24;10.10;84.40
9057;DHT22;4563;54.756;9.400;2023-02-17T03:33:51;10.10;84.50
9057;DHT22;4563;54.756;9.400;2023-02-17T03:36:19;10.10;84.50
9057;DHT22;4563;54.756;9.400;2023-02-17T03:38:46;10.20;84.50
9057;DHT22;4563;54.756;9.400;2023-02-17T03:41:13;10.10;84.50
9057;DHT22;4563;54.756;9.400;2023-02-17T03:43:39;10.10;84.50
9057;DHT22;4563;54.756;9.400;2023-02-17T03:46:09;10.20;84.60
9057;DHT22;4563;54.756;9.400;2023-02-17T03:48:36;10.10;84.60
9057;DHT22;4563;54.756;9.400;2023-02-17T03:51:09;10.20;84.50
9057;DHT22;4563;54.756;9.400;2023-02-17T03:53:38;10.20;84.50
9057;DHT22;4563;54.756;9.400;2023-02-17T03:56:05;10.20;84.50
9057;DHT22;4563;54.756;9.400;2023-02-17T03:58:32;10.20;84.60
9057;DHT22;4563;54.756;9.400;2023-02-17T04:00:58;10.20;84.50
9057;DHT22;4563;54.756;9.400;2023-02-17T04:03:25;10.10;84.50
9057;DHT22;4563;54.756;9.400;2023-02-17T04:05:52;10.20;84.60
9057;DHT22;4563;54.756;9.400;2023-02-17T04:08:20;10.20;84.70
9057;DHT22;4563;54.756;9.400;2023-02-17T04:10:51;10.20;84.70
9057;DHT22;4563;54.756;9.400;2023-02-17T04:13:18;10.20;84.50
9057;DHT22;4563;54.756;9.400;2023-02-17T04:15:45;10.20;84.60
9057;DHT22;4563;54.756;9.400;2023-02-17T04:18:13;10.20;84.70
9057;DHT22;4563;54.756;9.400;2023-02-17T04:20:39;10.20;84.60
9057;DHT22;4563;54.756;9.400;2023-02-17T04:23:06;10.20;84.60
9057;DHT22;4563;54.756;9.400;2023-02-17T04:25:34;10.10;84.50
9057;DHT22;4563;54.756;9.400;2023-02-17T04:28:02;10.20;84.70
9057;DHT22;4563;54.756;9.400;2023-02-17T04:30:30;10.20;84.70
9057;DHT22;4563;54.756;9.400;2023-02-17T04:32:57;10.20;84.70
9057;DHT22;4563;54.756;9.400;2023-02-17T04:35:24;10.20;84.70
9057;DHT22;4563;54.756;9.400;2023-02-17T04:37:51;10.20;84.70
9057;DHT22;4563;54.756;9.400;2023-02-17T04:40:18;10.20;84.60
9057;DHT22;4563;54.756;9.400;2023-02-17T04:42:45;10.20;84.70
9057;DHT22;4563;54.756;9.400;2023-02-17T04:45:13;10.20;84.70
9057;DHT22;4563;54.756;9.400;2023-02-17T04:47:40;10.20;84.60
9057;DHT22;4563;54.756;9.400;2023-02-17T04:50:08;10.20;84.50
9057;DHT22;4563;54.756;9.400;2023-02-17T04:52:36;10.30;84.80
9057;DHT22;4563;54.756;9.400;2023-02-17T04:55:04;10.20;84.60
9057;DHT22;4563;54.756;9.400;2023-02-17T04:57:31;10.30;84.80
9057;DHT22;4563;54.756;9.400;2023-02-17T04:59:58;10.30;84.70
9057;DHT22;4563;54.756;9.400;2023-02-17T05:02:26;10.30;84.70
9057;DHT22;4563;54.756;9.400;2023-02-17T05:04:53;10.30;84.60
9057;DHT22;4563;54.756;9.400;2023-02-17T05:07:20;10.20;84.60
9057;DHT22;4563;54.756;9.400;2023-02-17T05:09:47;10.30;84.80
9057;DHT22;4563;54.756;9.400;2023-02-17T05:12:14;10.30;84.80
9057;DHT22;4563;54.756;9.400;2023-02-17T05:14:41;10.30;84.60
9057;DHT22;4563;54.756;9.400;2023-02-17T05:17:07;10.20;84.50
9057;DHT22;4563;54.756;9.400;2023-02-17T05:19:36;10.30;84.70
9057;DHT22;4563;54.756;9.400;2023-02-17T05:22:04;10.30;84.70
9057;DHT22;4563;54.756;9.400;2023-02-17T05:24:31;10.30;84.80
9057;DHT22;4563;54.756;9.400;2023-02-17T05:26:57;10.30;84.70
9057;DHT22;4563;54.756;9.400;2023-02-17T05:29:24;10.30;84.80
9057;DHT22;4563;54.756;9.400;2023-02-17T05:31:51;10.30;84.80
9057;DHT22;4563;54.756;9.400;2023-02-17T05:34:18;10.30;84.80
9057;DHT22;4563;54.756;9.400;2023-02-17T05:36:46;10.30;84.80
9057;DHT22;4563;54.756;9.400;2023-02-17T05:39:13;10.30;84.80
9057;DHT22;4563;54.756;9.400;2023-02-17T05:41:39;10.30;84.80
9057;DHT22;4563;54.756;9.400;2023-02-17T05:44:06;10.30;84.70
9057;DHT22;4563;54.756;9.400;2023-02-17T05:46:33;10.30;84.80
9057;DHT22;4563;54.756;9.400;2023-02-17T05:49:00;10.30;84.80
9057;DHT22;4563;54.756;9.400;2023-02-17T05:51:27;10.30;84.70
9057;DHT22;4563;54.756;9.400;2023-02-17T05:53:55;10.30;84.60
9057;DHT22;4563;54.756;9.400;2023-02-17T05:56:21;10.30;84.70
9057;DHT22;4563;54.756;9.400;2023-02-17T05:58:48;10.30;84.70
9057;DHT22;4563;54.756;9.400;2023-02-17T06:01:15;10.30;84.70
9057;DHT22;4563;54.756;9.400;2023-02-17T06:03:42;10.40;84.90
9057;DHT22;4563;54.756;9.400;2023-02-17T06:06:09;10.30;84.70
9057;DHT22;4563;54.756;9.400;2023-02-17T06:08:36;10.30;84.70
9057;DHT22;4563;54.756;9.400;2023-02-17T06:11:04;10.40;84.80
9057;DHT22;4563;54.756;9.400;2023-02-17T06:13:31;10.30;84.60
9057;DHT22;4563;54.756;9.400;2023-02-17T06:15:58;10.30;84.70
9057;DHT22;4563;54.756;9.400;2023-02-17T06:18:24;10.30;84.70
9057;DHT22;4563;54.756;9.400;2023-02-17T06:20:54;10.40;84.90
9057;DHT22;4563;54.756;9.400;2023-02-17T06:23:21;10.40;84.70
9057;DHT22;4563;54.756;9.400;2023-02-17T06:25:48;10.40;84.80
9057;DHT22;4563;54.756;9.400;2023-02-17T06:28:16;10.40;84.80
9057;DHT22;4563;54.756;9.400;2023-02-17T06:30:43;10.40;84.90
9057;DHT22;4563;54.756;9.400;2023-02-17T06:33:10;10.40;84.90
9057;DHT22;4563;54.756;9.400;2023-02-17T06:35:37;10.30;84.60
9057;DHT22;4563;54.756;9.400;2023-02-17T06:38:03;10.40;85.00
9057;DHT22;4563;54.756;9.400;2023-02-17T06:40:30;10.40;84.90
9057;DHT22;4563;54.756;9.400;2023-02-17T06:42:57;10.40;84.70
9057;DHT22;4563;54.756;9.400;2023-02-17T06:45:25;10.40;84.90
9057;DHT22;4563;54.756;9.400;2023-02-17T06:47:52;10.40;84.70
9057;DHT22;4563;54.756;9.400;2023-02-17T06:50:19;10.40;84.80
9057;DHT22;4563;54.756;9.400;2023-02-17T06:52:46;10.40;84.80
9057;DHT22;4563;54.756;9.400;2023-02-17T06:55:13;10.40;84.70
9057;DHT22;4563;54.756;9.400;2023-02-17T06:57:40;10.40;84.80
9057;DHT22;4563;54.756;9.400;2023-02-17T07:00:07;10.40;84.80
9057;DHT22;4563;54.756;9.400;2023-02-17T07:02:37;10.40;84.90
9057;DHT22;4563;54.756;9.400;2023-02-17T07:05:05;10.40;84.80
9057;DHT22;4563;54.756;9.400;2023-02-17T07:07:32;10.40;84.90
9057;DHT22;4563;54.756;9.400;2023-02-17T07:09:58;10.40;84.80
9057;DHT22;4563;54.756;9.400;2023-02-17T07:12:26;10.40;84.80
9057;DHT22;4563;54.756;9.400;2023-02-17T07:14:53;10.40;84.80
9057;DHT22;4563;54.756;9.400;2023-02-17T07:17:20;10.40;84.70
9057;DHT22;4563;54.756;9.400;2023-02-17T07:19:48;10.40;84.90
9057;DHT22;4563;54.756;9.400;2023-02-17T07:22:15;10.40;84.80
9057;DHT22;4563;54.756;9.400;2023-02-17T07:24:41;10.40;84.80
9057;DHT22;4563;54.756;9.400;2023-02-17T07:27:08;10.40;84.80
9057;DHT22;4563;54.756;9.400;2023-02-17T07:29:35;10.40;84.80
9057;DHT22;4563;54.756;9.400;2023-02-17T07:32:02;10.40;84.80
9057;DHT22;4563;54.756;9.400;2023-02-17T07:34:29;10.40;84.70
9057;DHT22;4563;54.756;9.400;2023-02-17T07:36:57;10.40;84.80
9057;DHT22;4563;54.756;9.400;2023-02-17T07:39:24;10.40;84.80
9057;DHT22;4563;54.756;9.400;2023-02-17T07:41:51;10.40;84.70
9057;DHT22;4563;54.756;9.400;2023-02-17T07:44:17;10.40;84.90
9057;DHT22;4563;54.756;9.400;2023-02-17T07:46:44;10.50;85.00
9057;DHT22;4563;54.756;9.400;2023-02-17T07:49:11;10.40;84.80
9057;DHT22;4563;54.756;9.400;2023-02-17T07:51:39;10.50;84.80
9057;DHT22;4563;54.756;9.400;2023-02-17T07:54:07;10.40;84.80
9057;DHT22;4563;54.756;9.400;2023-02-17T07:56:34;10.50;84.90
9057;DHT22;4563;54.756;9.400;2023-02-17T07:59:00;10.50;84.80
9057;DHT22;4563;54.756;9.400;2023-02-17T08:01:27;10.40;84.70
9057;DHT22;4563;54.756;9.400;2023-02-17T08:03:55;10.50;84.90
9057;DHT22;4563;54.756;9.400;2023-02-17T08:06:23;10.50;84.90
9057;DHT22;4563;54.756;9.400;2023-02-17T08:08:51;10.50;85.00
9057;DHT22;4563;54.756;9.400;2023-02-17T08:11:37;10.50;85.00
9057;DHT22;4563;54.756;9.400;2023-02-17T08:14:23;10.50;84.90
9057;DHT22;4563;54.756;9.400;2023-02-17T08:16:50;10.50;85.00
9057;DHT22;4563;54.756;9.400;2023-02-17T08:19:17;10.50;84.90
9057;DHT22;4563;54.756;9.400;2023-02-17T08:21:45;10.50;85.00
9057;DHT22;4563;54.756;9.400;2023-02-17T08:24:12;10.40;84.80
9057;DHT22;4563;54.756;9.400;2023-02-17T08:26:42;10.50;85.00
9057;DHT22;4563;54.756;9.400;2023-02-17T08:29:08;10.50;84.90
9057;DHT22;4563;54.756;9.400;2023-02-17T08:31:36;10.50;84.90
9057;DHT22;4563;54.756;9.400;2023-02-17T08:34:06;10.50;84.80
9057;DHT22;4563;54.756;9.400;2023-02-17T08:36:33;10.50;84.90
9057;DHT22;4563;54.756;9.400;2023-02-17T08:39:03;10.50;84.90
9057;DHT22;4563;54.756;9.400;2023-02-17T08:41:31;10.50;84.90
9057;DHT22;4563;54.756;9.400;2023-02-17T08:44:01;10.60;85.00
9057;DHT22;4563;54.756;9.400;2023-02-17T08:46:29;10.60;85.00
9057;DHT22;4563;54.756;9.400;2023-02-17T08:48:56;10.50;84.90
9057;DHT22;4563;54.756;9.400;2023-02-17T08:51:23;10.60;85.10
9057;DHT22;4563;54.756;9.400;2023-02-17T08:53:52;10.60;85.10
9057;DHT22;4563;54.756;9.400;2023-02-17T08:56:19;10.60;85.00
9057;DHT22;4563;54.756;9.400;2023-02-17T08:58:47;10.60;85.10
9057;DHT22;4563;54.756;9.400;2023-02-17T09:01:16;10.60;85.00
9057;DHT22;4563;54.756;9.400;2023-02-17T09:03:44;10.60;85.00
9057;DHT22;4563;54.756;9.400;2023-02-17T09:06:11;10.60;85.00
9057;DHT22;4563;54.756;9.400;2023-02-17T09:08:38;10.60;84.90
9057;DHT22;4563;54.756;9.400;2023-02-17T09:11:06;10.60;84.90
9057;DHT22;4563;54.756;9.400;2023-02-17T09:13:33;10.60;84.90
9057;DHT22;4563;54.756;9.400;2023-02-17T09:16:00;10.70;85.10
9057;DHT22;4563;54.756;9.400;2023-02-17T09:18:28;10.70;85.10
9057;DHT22;4563;54.756;9.400;2023-02-17T09:20:55;10.70;84.90
9057;DHT22;4563;54.756;9.400;2023-02-17T09:23:22;10.70;85.00
9057;DHT22;4563;54.756;9.400;2023-02-17T09:25:49;10.70;85.00
9057;DHT22;4563;54.756;9.400;2023-02-17T09:28:16;10.70;84.90
9057;DHT22;4563;54.756;9.400;2023-02-17T09:30:43;10.70;85.00
9057;DHT22;4563;54.756;9.400;2023-02-17T09:33:09;10.70;84.90
9057;DHT22;4563;54.756;9.400;2023-02-17T09:35:38;10.70;85.00
9057;DHT22;4563;54.756;9.400;2023-02-17T09:38:05;10.70;84.90
9057;DHT22;4563;54.756;9.400;2023-02-17T09:40:39;10.70;84.90
9057;DHT22;4563;54.756;9.400;2023-02-17T09:43:11;10.70;84.90
9057;DHT22;4563;54.756;9.400;2023-02-17T09:45:41;10.70;85.00
9057;DHT22;4563;54.756;9.400;2023-02-17T09:48:11;10.70;85.00
9057;DHT22;4563;54.756;9.400;2023-02-17T09:50:43;10.70;84.90
9057;DHT22;4563;54.756;9.400;2023-02-17T09:53:16;10.70;85.00
9057;DHT22;4563;54.756;9.400;2023-02-17T09:55:47;10.70;84.90
9057;DHT22;4563;54.756;9.400;2023-02-17T09:58:18;10.70;84.90
9057;DHT22;4563;54.756;9.400;2023-02-17T10:00:47;10.70;85.00
9057;DHT22;4563;54.756;9.400;2023-02-17T10:03:19;10.70;85.00
9057;DHT22;4563;54.756;9.400;2023-02-17T10:05:54;10.70;84.90
9057;DHT22;4563;54.756;9.400;2023-02-17T10:08:27;10.80;85.00
9057;DHT22;4563;54.756;9.400;2023-02-17T10:11:00;10.70;85.00
9057;DHT22;4563;54.756;9.400;2023-02-17T10:13:30;10.70;84.90
9057;DHT22;4563;54.756;9.400;2023-02-17T10:15:59;10.80;85.00
9057;DHT22;4563;54.756;9.400;2023-02-17T10:18:32;10.80;85.10
9057;DHT22;4563;54.756;9.400;2023-02-17T10:21:04;10.80;85.00
9057;DHT22;4563;54.756;9.400;2023-02-17T10:23:33;10.80;85.10
9057;DHT22;4563;54.756;9.400;2023-02-17T10:26:07;10.80;85.10
9057;DHT22;4563;54.756;9.400;2023-02-17T10:28:47;10.80;85.00
9057;DHT22;4563;54.756;9.400;2023-02-17T10:31:20;10.80;85.00
9057;DHT22;4563;54.756;9.400;2023-02-17T10:33:54;10.80;85.10
9057;DHT22;4563;54.756;9.400;2023-02-17T10:36:28;10.80;85.00
9057;DHT22;4563;54.756;9.400;2023-02-17T10:39:01;10.80;85.00
9057;DHT22;4563;54.756;9.400;2023-02-17T10:41:34;10.90;85.10
9057;DHT22;4563;54.756;9.400;2023-02-17T10:44:07;10.90;85.10
9057;DHT22;4563;54.756;9.400;2023-02-17T10:46:34;10.90;85.10
9057;DHT22;4563;54.756;9.400;2023-02-17T10:49:01;10.90;85.10
9057;DHT22;4563;54.756;9.400;2023-02-17T10:51:30;10.90;85.10
9057;DHT22;4563;54.756;9.400;2023-02-17T10:54:00;10.90;85.20
9057;DHT22;4563;54.756;9.400;2023-02-17T10:56:32;10.90;85.20
9057;DHT22;4563;54.756;9.400;2023-02-17T10:59:04;11.00;85.20
9057;DHT22;4563;54.756;9.400;2023-02-17T11:01:32;11.00;86.00
9057;DHT22;4563;54.756;9.400;2023-02-17T11:04:01;11.00;85.20
9057;DHT22;4563;54.756;9.400;2023-02-17T11:06:31;10.90;85.20
9057;DHT22;4563;54.756;9.400;2023-02-17T11:09:00;11.00;85.30
9057;DHT22;4563;54.756;9.400;2023-02-17T11:11:28;11.00;85.20
9057;DHT22;4563;54.756;9.400;2023-02-17T11:14:01;11.00;85.20
9057;DHT22;4563;54.756;9.400;2023-02-17T11:16:34;11.00;85.20
9057;DHT22;4563;54.756;9.400;2023-02-17T11:19:02;11.00;85.20
9057;DHT22;4563;54.756;9.400;2023-02-17T11:21:31;11.00;85.30
9057;DHT22;4563;54.756;9.400;2023-02-17T11:24:00;11.00;85.30
9057;DHT22;4563;54.756;9.400;2023-02-17T11:26:29;11.10;85.50
9057;DHT22;4563;54.756;9.400;2023-02-17T11:29:07;11.10;85.40
9057;DHT22;4563;54.756;9.400;2023-02-17T11:31:34;11.10;85.30
9057;DHT22;4563;54.756;9.400;2023-02-17T11:34:10;11.10;85.40
9057;DHT22;4563;54.756;9.400;2023-02-17T11:36:39;11.10;85.30
9057;DHT22;4563;54.756;9.400;2023-02-17T11:39:27;11.10;85.30
9057;DHT22;4563;54.756;9.400;2023-02-17T11:41:54;11.20;85.30
9057;DHT22;4563;54.756;9.400;2023-02-17T11:44:23;11.10;85.50
9057;DHT22;4563;54.756;9.400;2023-02-17T11:46:58;11.20;85.60
9057;DHT22;4563;54.756;9.400;2023-02-17T11:49:45;11.20;85.50
9057;DHT22;4563;54.756;9.400;2023-02-17T11:52:29;11.20;85.40
9057;DHT22;4563;54.756;9.400;2023-02-17T11:55:11;11.20;85.50
9057;DHT22;4563;54.756;9.400;2023-02-17T11:57:44;11.30;85.60
9057;DHT22;4563;54.756;9.400;2023-02-17T12:00:18;11.30;85.60
9057;DHT22;4563;54.756;9.400;2023-02-17T12:03:01;11.30;85.50
9057;DHT22;4563;54.756;9.400;2023-02-17T12:05:48;11.30;85.50
9057;DHT22;4563;54.756;9.400;2023-02-17T12:08:22;11.30;85.50
9057;DHT22;4563;54.756;9.400;2023-02-17T12:11:00;11.30;85.50
9057;DHT22;4563;54.756;9.400;2023-02-17T12:13:40;11.30;85.50
9057;DHT22;4563;54.756;9.400;2023-02-17T12:16:17;11.40;85.70
9057;DHT22;4563;54.756;9.400;2023-02-17T12:18:58;11.40;85.60
9057;DHT22;4563;54.756;9.400;2023-02-17T12:21:46;11.40;85.60
9057;DHT22;4563;54.756;9.400;2023-02-17T12:27:24;11.40;85.70
9057;DHT22;4563;54.756;9.400;2023-02-17T12:30:07;11.50;85.80
9057;DHT22;4563;54.756;9.400;2023-02-17T12:32:53;11.50;85.70
9057;DHT22;4563;54.756;9.400;2023-02-17T12:35:24;11.50;85.70
9057;DHT22;4563;54.756;9.400;2023-02-17T12:37:54;11.50;85.80
9057;DHT22;4563;54.756;9.400;2023-02-17T12:40:32;11.60;86.10
9057;DHT22;4563;54.756;9.400;2023-02-17T12:43:05;11.60;85.90
9057;DHT22;4563;54.756;9.400;2023-02-17T12:45:37;11.60;85.90
9057;DHT22;4563;54.756;9.400;2023-02-17T12:48:11;11.60;85.90
9057;DHT22;4563;54.756;9.400;2023-02-17T12:50:50;11.70;86.00
9057;DHT22;4563;54.756;9.400;2023-02-17T12:53:21;11.70;86.00
9057;DHT22;4563;54.756;9.400;2023-02-17T12:55:56;11.70;86.00
9057;DHT22;4563;54.756;9.400;2023-02-17T12:58:26;11.70;86.00
9057;DHT22;4563;54.756;9.400;2023-02-17T13:00:58;11.70;86.00
9057;DHT22;4563;54.756;9.400;2023-02-17T13:03:29;11.70;86.00
9057;DHT22;4563;54.756;9.400;2023-02-17T13:06:01;11.70;86.00
9057;DHT22;4563;54.756;9.400;2023-02-17T13:08:35;11.80;86.00
9057;DHT22;4563;54.756;9.400;2023-02-17T13:11:06;11.80;86.00
9057;DHT22;4563;54.756;9.400;2023-02-17T13:13:34;11.80;86.00
9057;DHT22;4563;54.756;9.400;2023-02-17T13:16:03;11.80;86.00
9057;DHT22;4563;54.756;9.400;2023-02-17T13:18:32;11.80;86.00
9057;DHT22;4563;54.756;9.400;2023-02-17T13:21:00;11.80;85.90
9057;DHT22;4563;54.756;9.400;2023-02-17T13:23:41;11.80;86.00
9057;DHT22;4563;54.756;9.400;2023-02-17T13:29:19;11.80;85.80
9057;DHT22;4563;54.756;9.400;2023-02-17T13:31:49;11.80;85.40
9057;DHT22;4563;54.756;9.400;2023-02-17T13:34:25;11.80;86.00
9057;DHT22;4563;54.756;9.400;2023-02-17T13:36:53;11.80;85.90
9057;DHT22;4563;54.756;9.400;2023-02-17T13:39:35;11.80;85.90
9057;DHT22;4563;54.756;9.400;2023-02-17T13:42:05;11.90;85.90
9057;DHT22;4563;54.756;9.400;2023-02-17T13:44:51;11.90;86.20
9057;DHT22;4563;54.756;9.400;2023-02-17T13:47:28;11.80;86.00
9057;DHT22;4563;54.756;9.400;2023-02-17T13:49:56;11.90;85.80
9057;DHT22;4563;54.756;9.400;2023-02-17T13:52:26;11.90;86.10
9057;DHT22;4563;54.756;9.400;2023-02-17T13:54:54;11.90;86.10
9057;DHT22;4563;54.756;9.400;2023-02-17T13:57:24;11.90;86.10
9057;DHT22;4563;54.756;9.400;2023-02-17T13:59:52;12.00;86.20
9057;DHT22;4563;54.756;9.400;2023-02-17T14:02:30;11.90;85.90
9057;DHT22;4563;54.756;9.400;2023-02-17T14:04:57;11.90;85.90
9057;DHT22;4563;54.756;9.400;2023-02-17T14:07:25;11.90;85.90
9057;DHT22;4563;54.756;9.400;2023-02-17T14:09:53;11.90;85.90
9057;DHT22;4563;54.756;9.400;2023-02-17T14:12:22;11.90;85.80
9057;DHT22;4563;54.756;9.400;2023-02-17T14:14:50;11.90;85.70
9057;DHT22;4563;54.756;9.400;2023-02-17T14:17:27;11.90;85.70
9057;DHT22;4563;54.756;9.400;2023-02-17T14:19:55;11.90;85.30
9057;DHT22;4563;54.756;9.400;2023-02-17T14:22:24;11.90;85.70
9057;DHT22;4563;54.756;9.400;2023-02-17T14:25:01;11.90;85.70
9057;DHT22;4563;54.756;9.400;2023-02-17T14:27:40;11.90;85.30
9057;DHT22;4563;54.756;9.400;2023-02-17T14:30:12;11.80;85.30
9057;DHT22;4563;54.756;9.400;2023-02-17T14:32:39;11.80;85.40
9057;DHT22;4563;54.756;9.400;2023-02-17T14:35:22;11.80;85.60
9057;DHT22;4563;54.756;9.400;2023-02-17T14:37:49;11.90;85.40
9057;DHT22;4563;54.756;9.400;2023-02-17T14:40:20;11.90;85.00
9057;DHT22;4563;54.756;9.400;2023-02-17T14:42:49;11.90;85.00
9057;DHT22;4563;54.756;9.400;2023-02-17T14:45:17;11.80;85.00
9057;DHT22;4563;54.756;9.400;2023-02-17T14:47:44;11.80;84.90
9057;DHT22;4563;54.756;9.400;2023-02-17T14:50:11;11.80;84.80
9057;DHT22;4563;54.756;9.400;2023-02-17T14:52:42;11.80;84.70
9057;DHT22;4563;54.756;9.400;2023-02-17T14:55:14;11.80;84.60
9057;DHT22;4563;54.756;9.400;2023-02-17T14:57:42;11.80;84.60
9057;DHT22;4563;54.756;9.400;2023-02-17T15:00:13;11.80;84.40
9057;DHT22;4563;54.756;9.400;2023-02-17T15:02:40;11.80;84.40
9057;DHT22;4563;54.756;9.400;2023-02-17T15:05:07;11.80;84.20
9057;DHT22;4563;54.756;9.400;2023-02-17T15:07:34;11.80;84.00
9057;DHT22;4563;54.756;9.400;2023-02-17T15:10:01;11.80;83.90
9057;DHT22;4563;54.756;9.400;2023-02-17T15:12:28;11.80;83.80
9057;DHT22;4563;54.756;9.400;2023-02-17T15:14:54;11.70;83.60
9057;DHT22;4563;54.756;9.400;2023-02-17T15:17:23;11.70;83.40
9057;DHT22;4563;54.756;9.400;2023-02-17T15:19:49;11.70;83.40
9057;DHT22;4563;54.756;9.400;2023-02-17T15:22:16;11.60;83.20
9057;DHT22;4563;54.756;9.400;2023-02-17T15:24:43;11.60;83.10
9057;DHT22;4563;54.756;9.400;2023-02-17T15:27:12;11.60;82.80
9057;DHT22;4563;54.756;9.400;2023-02-17T15:29:39;11.60;82.80
9057;DHT22;4563;54.756;9.400;2023-02-17T15:32:13;11.60;82.70
9057;DHT22;4563;54.756;9.400;2023-02-17T15:34:44;11.60;82.60
9057;DHT22;4563;54.756;9.400;2023-02-17T15:37:11;11.50;82.40
9057;DHT22;4563;54.756;9.400;2023-02-17T15:39:38;11.50;82.30
9057;DHT22;4563;54.756;9.400;2023-02-17T15:42:09;11.50;82.20
9057;DHT22;4563;54.756;9.400;2023-02-17T15:44:41;11.50;82.20
9057;DHT22;4563;54.756;9.400;2023-02-17T15:47:12;11.50;82.20
9057;DHT22;4563;54.756;9.400;2023-02-17T15:49:40;11.40;82.10
9057;DHT22;4563;54.756;9.400;2023-02-17T15:52:10;11.40;82.30
9057;DHT22;4563;54.756;9.400;2023-02-17T15:54:38;11.40;82.10
9057;DHT22;4563;54.756;9.400;2023-02-17T15:57:05;11.40;82.10
9057;DHT22;4563;54.756;9.400;2023-02-17T15:59:33;11.30;81.80
9057;DHT22;4563;54.756;9.400;2023-02-17T16:02:01;11.30;81.80
9057;DHT22;4563;54.756;9.400;2023-02-17T16:04:27;11.30;81.70
9057;DHT22;4563;54.756;9.400;2023-02-17T16:06:54;11.20;81.70
9057;DHT22;4563;54.756;9.400;2023-02-17T16:09:22;11.20;81.60
9057;DHT22;4563;54.756;9.400;2023-02-17T16:11:51;11.20;81.40
9057;DHT22;4563;54.756;9.400;2023-02-17T16:14:22;11.20;81.40
9057;DHT22;4563;54.756;9.400;2023-02-17T16:16:50;11.10;81.50
9057;DHT22;4563;54.756;9.400;2023-02-17T16:19:16;11.10;81.30
9057;DHT22;4563;54.756;9.400;2023-02-17T16:21:45;11.10;81.00
9057;DHT22;4563;54.756;9.400;2023-02-17T16:24:11;11.10;81.00
9057;DHT22;4563;54.756;9.400;2023-02-17T16:26:40;11.00;80.90
9057;DHT22;4563;54.756;9.400;2023-02-17T16:29:13;11.00;81.00
9057;DHT22;4563;54.756;9.400;2023-02-17T16:31:40;11.00;80.90